Lushton, Nebraska
Current Conditions -  °F | °C
As of 8:55 AM on Sunday 23 Nov 2014 (Local Time) from KJYR Reporting Station
Unknown Precip Unknown Precip  
Wind Chill: 37°   Ceiling: 6000
Heat Index: 45°   Visibility: 10mi
Dew Point: 39°   Wind: 16mph
Humidity: 81%   Direction: 360°N
Pressure: 29.56"   Gusts: 26mph
Location:  40.7857°N, 97.7689°W
Report Text: KJYR 231455Z AUTO 36014G23KT 10SM UP OVC060 07/04 A2956 RMK AO2
Loading
Personal Weather Stations






























Interactive Weather Map New forecast layout! Learn more

10-Day Weather Forecast

Advertisements
Track Severe Weather on mobile